Latest Weather Observations for Bougainville Reef

IDQ60801

Issued at 6:02 pm EST Monday 5 December 2016 (issued every 30 minutes, with the page automatically refreshed every 10 minutes)

About weather observations | Map of weather stations | Latest weather observations for QLD | Other Formats
Station Details ID: 200840 Name: BOUGAINVILLE REEF Lat: -15.49 Lon: 147.12 Height: 0.0 m
Data from the previous 72 hours. | See also: Recent months for locations in Queensland
Date/Time
EST
Temp
°C
App
Temp
°C
Dew
Point
°C
Rel
Hum
%
Delta-T
°C
Wind Press
QNH
hPa
Press
MSL
hPa
Rain since
9am
mm
Dir  Spd
km/h
Gust
km/h
Spd
kts
Gust
kts
05/06:00pm 27.2 - - - - SE 32 41 17 22 1010.9 1010.7 -
05/05:30pm 27.2 - - - - SE 33 39 18 21 1010.7 - -
05/05:00pm 27.4 - - - - SE 32 39 17 21 1010.6 1010.5 -
05/04:30pm 27.4 - - - - SE 32 37 17 20 1010.6 - -
05/04:00pm 27.4 - - - - SE 33 37 18 20 1010.4 1010.3 -
05/03:30pm 27.3 - - - - SE 33 39 18 21 1010.5 - -
05/03:00pm 27.2 - - - - SE 32 35 17 19 1010.8 1010.8 -
05/02:30pm 27.2 - - - - SE 30 35 16 19 1011.0 - -
05/02:00pm 27.1 - - - - SE 33 37 18 20 1011.1 1011.1 -
05/01:30pm 27.2 - - - - SE 33 37 18 20 1011.3 - -
05/01:00pm 27.1 - - - - SE 32 37 17 20 1011.6 1011.5 -
05/12:30pm 27.2 - - - - SE 32 35 17 19 1011.9 - -
05/12:00pm 27.2 - - - - ESE 33 39 18 21 1012.2 1012.2 -
05/11:30am 27.1 - - - - SE 37 43 20 23 1012.3 - -
05/11:00am 27.1 - - - - SE 33 37 18 20 1012.7 1012.7 -
05/10:30am 27.1 - - - - SE 32 37 17 20 1013.0 - -
05/10:00am 27.3 - - - - ESE 33 39 18 21 1013.0 1012.9 -
05/09:30am 27.3 - - - - ESE 35 41 19 22 1013.1 - -
05/09:00am 27.2 - - - - ESE 33 39 18 21 1013.1 1013.0 -
05/08:30am 27.2 - - - - ESE 35 41 19 22 1013.1 - -
05/08:00am 27.2 - - - - ESE 35 41 19 22 1013.1 1012.9 -
05/07:30am 27.1 - - - - SE 37 44 20 24 1012.9 - -
05/07:00am 27.1 - - - - ESE 33 41 18 22 1012.7 1012.5 -
05/06:30am 27.1 - - - - ESE 33 39 18 21 1012.3 - -
05/06:00am 26.9 - - - - ESE 35 39 19 21 1012.0 1011.8 -
05/05:30am 26.8 - - - - ESE 39 44 21 24 1011.6 - -
05/05:00am 27.0 - - - - ESE 32 35 17 19 1011.3 1011.1 -
05/04:30am 26.7 - - - - E 35 39 19 21 1011.0 - -
05/04:00am 26.9 - - - - E 35 41 19 22 1010.6 1010.5 -
05/03:30am 26.8 - - - - ESE 35 41 19 22 1010.6 - -
05/03:00am 26.9 - - - - ESE 35 41 19 22 1010.6 1010.5 -
05/02:30am 27.0 - - - - E 33 39 18 21 1010.7 - -
05/02:00am 26.9 - - - - E 35 39 19 21 1010.8 1010.7 -
05/01:30am 27.0 - - - - E 33 39 18 21 1010.9 - -
05/01:00am 27.1 - - - - E 35 39 19 21 1011.4 1011.4 -
05/12:30am 27.1 - - - - ESE 35 39 19 21 1011.8 - -
05/12:00am 27.2 - - - - ESE 33 39 18 21 1012.1 1012.2 -
 
Date/Time
EST
Temp
°C
App
Temp
°C
Dew
Point
°C
Rel
Hum
%
Delta-T
°C
Wind Press
QNH
hPa
Press
MSL
hPa
Rain since
9am
mm
Dir  Spd
km/h
Gust
km/h
Spd
kts
Gust
kts
04/11:30pm 27.2 - - - - ESE 35 41 19 22 1012.5 - -
04/11:00pm 27.3 - - - - ESE 37 43 20 23 1012.6 1012.5 -
04/10:30pm 27.4 - - - - ESE 39 44 21 24 1012.5 - -
04/10:00pm 27.4 - - - - ESE 39 43 21 23 1012.4 1012.3 -
04/09:30pm 27.5 - - - - ESE 37 43 20 23 1012.3 - -
04/09:00pm 27.3 - - - - ESE 37 46 20 25 1012.1 1012.0 -
04/08:30pm 27.5 - - - - ESE 33 39 18 21 1012.1 - -
04/08:00pm 27.4 - - - - ESE 35 39 19 21 1011.9 1011.7 -
04/07:30pm 27.5 - - - - ESE 35 39 19 21 1011.6 - -
04/07:00pm 27.4 - - - - ESE 35 41 19 22 1011.5 1011.3 -
04/06:30pm 27.5 - - - - ESE 33 37 18 20 1011.3 - -
04/06:00pm 27.3 - - - - SE 32 37 17 20 1011.0 1010.8 -
04/05:30pm 27.4 - - - - SE 32 37 17 20 1010.8 - -
04/05:00pm 27.5 - - - - SE 30 33 16 18 1010.5 1010.3 -
04/04:30pm 27.5 - - - - SE 28 32 15 17 1010.4 - -
04/04:00pm 27.4 - - - - SE 28 32 15 17 1010.4 1010.3 -
04/03:30pm 27.4 - - - - SE 28 33 15 18 1010.5 - -
04/03:00pm 27.5 - - - - ESE 30 35 16 19 1010.7 1010.7 -
04/02:30pm 27.4 - - - - ESE 33 35 18 19 1010.9 - -
04/02:00pm 27.5 - - - - SE 35 39 19 21 1011.1 1011.1 -
04/01:30pm 27.5 - - - - SE 35 39 19 21 1011.6 - -
04/01:00pm 27.8 - - - - SE 37 44 20 24 1011.9 1011.9 -
04/12:30pm 27.5 - - - - SE 35 43 19 23 1012.2 - -
04/12:00pm 27.4 - - - - ESE 32 37 17 20 1012.3 1012.2 -
04/11:30am 27.7 - - - - ESE 37 41 20 22 1012.8 - -
04/11:00am 27.7 - - - - ESE 37 46 20 25 1013.2 1013.3 -
04/10:30am 27.4 - - - - ESE 35 43 19 23 1013.2 - -
04/10:00am 27.4 - - - - ESE 37 43 20 23 1013.2 1013.2 -
04/09:30am 27.4 - - - - ESE 35 41 19 22 1013.4 - -
04/09:00am 27.4 - - - - ESE 39 46 21 25 1013.3 1013.2 -
04/08:30am 27.5 - - - - ESE 37 46 20 25 1013.4 - -
04/08:00am 27.3 - - - - ESE 41 46 22 25 1013.2 1013.1 -
04/07:30am 27.3 - - - - ESE 39 44 21 24 1013.1 - -
04/07:00am 27.3 - - - - ESE 41 50 22 27 1012.9 1012.6 -
04/06:30am 27.4 - - - - ESE 41 46 22 25 1012.5 - -
04/06:00am 27.2 - - - - ESE 39 41 21 22 1012.4 1012.1 -
04/05:30am 27.3 - - - - ESE 43 48 23 26 1012.0 - -
04/05:00am 27.2 - - - - ESE 43 50 23 27 1011.8 1011.7 -
04/04:30am 27.2 - - - - ESE 39 43 21 23 1011.6 - -
04/04:00am 27.3 - - - - ESE 41 43 22 23 1011.3 1011.2 -
04/03:30am 27.0 - - - - ESE 39 44 21 24 1011.1 - -
04/03:00am 27.3 - - - - ESE 41 41 22 22 1011.0 1010.9 -
04/02:30am 27.2 - - - - ESE 41 50 22 27 1010.9 - -
04/02:00am 27.3 - - - - ESE 39 41 21 22 1011.2 1011.1 -
04/01:30am 27.1 - - - - ESE 35 43 19 23 1011.2 - -
04/01:00am 27.4 - - - - E 37 44 20 24 1011.5 1011.4 -
04/12:30am 27.1 - - - - ESE 37 43 20 23 1011.5 - -
04/12:00am 27.3 - - - - ESE 35 43 19 23 1012.1 1012.1 -
 
Date/Time
EST
Temp
°C
App
Temp
°C
Dew
Point
°C
Rel
Hum
%
Delta-T
°C
Wind Press
QNH
hPa
Press
MSL
hPa
Rain since
9am
mm
Dir  Spd
km/h
Gust
km/h
Spd
kts
Gust
kts
03/11:30pm 27.3 - - - - ESE 37 43 20 23 1012.5 - -
03/11:00pm 27.4 - - - - ESE 35 43 19 23 1012.5 1012.4 -
03/10:30pm 27.2 - - - - ESE 33 39 18 21 1012.5 - -
03/10:00pm 27.3 - - - - ESE 35 - 19 - - 1012.4 -
03/09:30pm 27.2 - - - - ESE 33 39 18 21 1012.4 - -
03/09:00pm 27.1 - - - - ESE 32 - 17 - - 1012.2 -
03/08:00pm 27.1 - - - - ESE 32 37 17 20 1012.0 1011.9 -
03/07:30pm 27.3 - - - - ESE 33 39 18 21 1011.9 - -
03/07:00pm 27.3 - - - - ESE 32 35 17 19 1011.8 1011.7 -
03/06:30pm 27.3 - - - - ESE 33 39 18 21 1011.6 - -
03/06:00pm 27.4 - - - - SE 30 35 16 19 1011.6 1011.4 -
03/05:30pm 27.3 - - - - SE 28 35 15 19 1011.3 - -
03/05:00pm 27.3 - - - - SE 26 33 14 18 1011.1 1011.0 -
03/04:30pm 27.4 - - - - SE 26 32 14 17 1011.1 - -
03/04:00pm 27.2 - - - - SE 26 32 14 17 1011.0 1011.0 -
03/03:30pm 27.2 - - - - SE 26 30 14 16 1011.0 - -
03/03:00pm 27.2 - - - - SE 24 32 13 17 1011.0 1011.0 -
03/02:30pm 27.2 - - - - SE 24 28 13 15 1011.2 - -
03/02:00pm 27.4 - - - - SE 26 32 14 17 1011.4 1011.3 -
03/01:30pm 27.3 - - - - SE 24 30 13 16 1011.7 - -
03/01:00pm 27.3 - - - - SE 24 30 13 16 1012.0 1011.9 -
03/12:30pm 27.1 - - - - SE 22 26 12 14 1012.2 - -
03/12:00pm 27.1 - - - - ESE 22 28 12 15 1012.3 1012.3 -
03/11:30am 27.0 - - - - ESE 22 24 12 13 1012.6 - -
03/11:00am 27.3 - - - - SE 22 28 12 15 1012.8 1012.7 -
03/10:30am 27.3 - - - - ESE 24 28 13 15 1013.0 - -
03/10:00am 27.2 - - - - ESE 24 26 13 14 1013.2 1013.0 -
03/09:30am 27.2 - - - - ESE 24 30 13 16 1013.3 - -
03/09:00am 27.1 - - - - ESE 24 28 13 15 1013.3 1013.3 -
03/08:30am 27.0 - - - - ESE 22 28 12 15 1013.4 - -
03/08:00am 27.0 - - - - ESE 22 24 12 13 1013.2 1013.0 -
03/07:30am 27.1 - - - - E 26 30 14 16 1012.9 - -
03/07:00am 26.9 - - - - ESE 28 33 15 18 1012.6 1012.5 -
03/06:30am 26.8 - - - - ESE 22 30 12 16 1012.2 - -
03/06:00am 26.6 - - - - ESE 22 26 12 14 1012.1 1011.8 -
03/05:30am 26.6 - - - - ESE 22 28 12 15 1011.8 - -
03/05:00am 26.5 - - - - ESE 22 30 12 16 1011.4 1011.2 -
03/04:30am 26.6 - - - - ESE 24 32 13 17 1011.1 - -
03/04:00am 26.6 - - - - E 24 30 13 16 1010.9 1010.7 -
03/03:30am 26.4 - - - - ESE 26 30 14 16 1010.7 - -
03/03:00am 26.5 - - - - ESE 24 30 13 16 1010.5 1010.4 -
03/02:30am 26.5 - - - - E 24 28 13 15 1010.4 - -
03/02:00am 26.6 - - - - ESE 24 32 13 17 1010.8 1010.7 -
03/01:30am 26.7 - - - - ESE 24 28 13 15 1011.0 - -
03/01:00am 26.6 - - - - ESE 24 28 13 15 1011.1 1011.1 -
03/12:30am 26.6 - - - - ESE 26 30 14 16 1011.6 - -
03/12:00am 26.7 - - - - ESE 26 30 14 16 1012.2 1012.2 -
 
Date/Time
EST
Temp
°C
App
Temp
°C
Dew
Point
°C
Rel
Hum
%
Delta-T
°C
Wind Press
QNH
hPa
Press
MSL
hPa
Rain since
9am
mm
Dir  Spd
km/h
Gust
km/h
Spd
kts
Gust
kts
02/11:30pm 26.8 - - - - ESE 26 32 14 17 1012.6 - -
02/11:00pm 26.9 - - - - ESE 26 32 14 17 1012.8 1012.7 -
02/10:30pm 26.9 - - - - ESE 28 30 15 16 1012.8 - -
02/10:00pm 27.1 - - - - ESE 26 32 14 17 1012.7 1012.7 -
02/09:30pm 26.9 - - - - SE 26 30 14 16 1012.6 - -
02/09:00pm 26.9 - - - - SE 24 32 13 17 1012.4 1012.3 -
02/08:30pm 27.0 - - - - SE 24 30 13 16 1012.3 - -
02/08:00pm 26.9 - - - - SE 22 26 12 14 1012.2 1012.1 -
02/07:30pm 27.0 - - - - SE 20 24 11 13 1012.1 - -
02/07:00pm 27.1 - - - - SE 20 24 11 13 1011.8 1011.8 -
02/06:30pm 27.0 - - - - SE 19 24 10 13 1011.9 - -

Other Formats:

Comma delimited format used in spreadsheet applications
http://www.bom.gov.au/fwo/IDQ60801/IDQ60801.95288.axf

JavaScript Object Notation format (JSON) in row-major order
http://www.bom.gov.au/fwo/IDQ60801/IDQ60801.95288.json